sensor_id;sensor_type;location;lat;lon;timestamp;pressure;altitude;pressure_sealevel;temperature;humidity
55347;BME280;41218;55.700;38.270;2022-11-20T00:04:30;99900.19;;;-2.39;73.82
55347;BME280;41218;55.700;38.270;2022-11-20T00:09:31;99908.63;;;-2.41;73.66
55347;BME280;41218;55.700;38.270;2022-11-20T00:14:31;99912.94;;;-2.40;74.14
55347;BME280;41218;55.700;38.270;2022-11-20T00:19:32;99893.78;;;-2.49;73.76
55347;BME280;41218;55.700;38.270;2022-11-20T00:24:32;99909.69;;;-2.42;73.98
55347;BME280;41218;55.700;38.270;2022-11-20T00:29:32;99908.31;;;-2.39;73.92
55347;BME280;41218;55.700;38.270;2022-11-20T00:34:33;99902.09;;;-2.40;73.81
55347;BME280;41218;55.700;38.270;2022-11-20T00:39:33;99914.56;;;-2.39;73.71
55347;BME280;41218;55.700;38.270;2022-11-20T00:44:34;99903.47;;;-2.43;73.69
55347;BME280;41218;55.700;38.270;2022-11-20T00:49:34;99907.25;;;-2.38;73.52
55347;BME280;41218;55.700;38.270;2022-11-20T00:54:35;99908.31;;;-2.39;73.37
55347;BME280;41218;55.700;38.270;2022-11-20T00:59:35;99895.38;;;-2.43;73.97
55347;BME280;41218;55.700;38.270;2022-11-20T01:04:36;99911.03;;;-2.39;73.63
55347;BME280;41218;55.700;38.270;2022-11-20T01:09:36;99908.38;;;-2.45;73.46
55347;BME280;41218;55.700;38.270;2022-11-20T01:14:37;99907.31;;;-2.49;73.81
55347;BME280;41218;55.700;38.270;2022-11-20T01:19:37;99894.91;;;-2.55;73.89
55347;BME280;41218;55.700;38.270;2022-11-20T01:24:38;99909.75;;;-2.52;74.34
55347;BME280;41218;55.700;38.270;2022-11-20T01:29:38;99893.84;;;-2.59;73.82
55347;BME280;41218;55.700;38.270;2022-11-20T01:34:39;99895.75;;;-2.59;74.04
55347;BME280;41218;55.700;38.270;2022-11-20T01:39:39;99909.75;;;-2.52;74.17
55347;BME280;41218;55.700;38.270;2022-11-20T01:44:58;99897.88;;;-2.56;73.80
55347;BME280;41218;55.700;38.270;2022-11-20T01:55:11;99909.53;;;-2.61;73.95
55347;BME280;41218;55.700;38.270;2022-11-20T02:00:15;99919.78;;;-2.58;74.02
55347;BME280;41218;55.700;38.270;2022-11-20T02:05:28;99919.00;;;-2.58;73.67
55347;BME280;41218;55.700;38.270;2022-11-20T02:10:31;99931.16;;;-2.56;73.97
55347;BME280;41218;55.700;38.270;2022-11-20T02:15:33;99932.25;;;-2.57;73.92
55347;BME280;41218;55.700;38.270;2022-11-20T02:20:33;99901.75;;;-2.78;74.32
55347;BME280;41218;55.700;38.270;2022-11-20T02:25:34;99931.69;;;-2.54;73.78
55347;BME280;41218;55.700;38.270;2022-11-20T02:30:36;99942.28;;;-2.57;73.84
55347;BME280;41218;55.700;38.270;2022-11-20T02:35:40;99947.69;;;-2.57;73.49
55347;BME280;41218;55.700;38.270;2022-11-20T02:40:41;99949.88;;;-2.59;73.51
55347;BME280;41218;55.700;38.270;2022-11-20T02:45:42;99941.47;;;-2.63;73.71
55347;BME280;41218;55.700;38.270;2022-11-20T02:50:43;99963.09;;;-2.58;73.54
55347;BME280;41218;55.700;38.270;2022-11-20T02:55:43;99945.78;;;-2.62;73.49
55347;BME280;41218;55.700;38.270;2022-11-20T03:00:44;99954.16;;;-2.58;73.37
55347;BME280;41218;55.700;38.270;2022-11-20T03:05:44;99942.34;;;-2.78;73.38
55347;BME280;41218;55.700;38.270;2022-11-20T03:10:45;99958.00;;;-2.65;73.25
55347;BME280;41218;55.700;38.270;2022-11-20T03:15:45;99951.50;;;-2.69;73.87
55347;BME280;41218;55.700;38.270;2022-11-20T03:20:46;99960.69;;;-2.65;74.02
55347;BME280;41218;55.700;38.270;2022-11-20T03:25:46;99976.94;;;-2.59;73.26
55347;BME280;41218;55.700;38.270;2022-11-20T03:30:47;99965.31;;;-2.65;73.34
55347;BME280;41218;55.700;38.270;2022-11-20T03:35:47;99966.69;;;-2.73;73.26
55347;BME280;41218;55.700;38.270;2022-11-20T03:40:48;99948.56;;;-2.77;73.53
55347;BME280;41218;55.700;38.270;2022-11-20T03:45:49;99962.09;;;-2.77;73.56
55347;BME280;41218;55.700;38.270;2022-11-20T03:50:49;99975.34;;;-2.71;73.19
55347;BME280;41218;55.700;38.270;2022-11-20T03:55:51;99982.88;;;-2.68;73.43
55347;BME280;41218;55.700;38.270;2022-11-20T04:00:51;99978.00;;;-2.60;73.36
55347;BME280;41218;55.700;38.270;2022-11-20T04:05:52;99982.88;;;-2.63;73.61
55347;BME280;41218;55.700;38.270;2022-11-20T04:10:52;99984.50;;;-2.62;73.02
55347;BME280;41218;55.700;38.270;2022-11-20T04:15:57;99981.81;;;-2.62;73.06
55347;BME280;41218;55.700;38.270;2022-11-20T04:20:58;99991.53;;;-2.60;73.12
55347;BME280;41218;55.700;38.270;2022-11-20T04:26:06;100009.13;;;-2.63;73.38
55347;BME280;41218;55.700;38.270;2022-11-20T04:31:12;100011.31;;;-2.70;72.83
55347;BME280;41218;55.700;38.270;2022-11-20T04:36:24;100005.63;;;-2.74;73.17
55347;BME280;41218;55.700;38.270;2022-11-20T04:41:28;100009.41;;;-2.70;73.03
55347;BME280;41218;55.700;38.270;2022-11-20T04:46:37;100034.59;;;-2.69;72.83
55347;BME280;41218;55.700;38.270;2022-11-20T04:51:37;100034.81;;;-2.66;73.20
55347;BME280;41218;55.700;38.270;2022-11-20T04:56:38;100029.19;;;-2.74;72.87
55347;BME280;41218;55.700;38.270;2022-11-20T05:01:39;100040.81;;;-2.74;72.90
55347;BME280;41218;55.700;38.270;2022-11-20T05:06:39;100037.56;;;-2.76;72.97
55347;BME280;41218;55.700;38.270;2022-11-20T05:11:40;100034.34;;;-2.88;73.02
55347;BME280;41218;55.700;38.270;2022-11-20T05:16:40;100045.44;;;-2.79;72.82
55347;BME280;41218;55.700;38.270;2022-11-20T05:21:42;100064.91;;;-2.77;72.41
55347;BME280;41218;55.700;38.270;2022-11-20T05:26:42;100083.56;;;-2.71;72.88
55347;BME280;41218;55.700;38.270;2022-11-20T05:31:43;100087.59;;;-2.68;72.72
55347;BME280;41218;55.700;38.270;2022-11-20T05:36:43;100080.81;;;-2.66;72.23
55347;BME280;41218;55.700;38.270;2022-11-20T05:41:44;100081.38;;;-2.74;72.05
55347;BME280;41218;55.700;38.270;2022-11-20T05:46:44;100095.44;;;-2.72;72.21
55347;BME280;41218;55.700;38.270;2022-11-20T05:51:44;100100.88;;;-2.77;72.32
55347;BME280;41218;55.700;38.270;2022-11-20T05:56:45;100091.41;;;-2.74;72.09
55347;BME280;41218;55.700;38.270;2022-11-20T06:01:45;100111.97;;;-2.73;72.11
55347;BME280;41218;55.700;38.270;2022-11-20T06:06:46;100098.16;;;-2.82;72.35
55347;BME280;41218;55.700;38.270;2022-11-20T06:11:46;100133.34;;;-2.72;72.20
55347;BME280;41218;55.700;38.270;2022-11-20T06:16:47;100129.00;;;-2.68;72.61
55347;BME280;41218;55.700;38.270;2022-11-20T06:21:48;100137.13;;;-2.63;71.90
55347;BME280;41218;55.700;38.270;2022-11-20T06:26:49;100124.16;;;-2.71;72.06
55347;BME280;41218;55.700;38.270;2022-11-20T06:31:50;100146.59;;;-2.65;72.33
55347;BME280;41218;55.700;38.270;2022-11-20T06:36:50;100161.75;;;-2.59;72.11
55347;BME280;41218;55.700;38.270;2022-11-20T06:41:51;100179.06;;;-2.55;71.72
55347;BME280;41218;55.700;38.270;2022-11-20T06:46:51;100183.41;;;-2.49;71.72
55347;BME280;41218;55.700;38.270;2022-11-20T06:51:52;100180.66;;;-2.44;72.13
55347;BME280;41218;55.700;38.270;2022-11-20T06:56:52;100180.94;;;-2.40;71.95
55347;BME280;41218;55.700;38.270;2022-11-20T07:01:53;100167.94;;;-2.33;71.90
55347;BME280;41218;55.700;38.270;2022-11-20T07:06:53;100167.69;;;-2.36;71.39
55347;BME280;41218;55.700;38.270;2022-11-20T07:11:54;100154.44;;;-2.43;71.53
55347;BME280;41218;55.700;38.270;2022-11-20T07:16:54;100137.66;;;-2.55;71.22
55347;BME280;41218;55.700;38.270;2022-11-20T07:21:55;100143.31;;;-2.42;71.50
55347;BME280;41218;55.700;38.270;2022-11-20T07:26:55;100171.19;;;-2.36;71.43
55347;BME280;41218;55.700;38.270;2022-11-20T07:31:56;100167.69;;;-2.36;71.00
55347;BME280;41218;55.700;38.270;2022-11-20T07:36:57;100170.38;;;-2.42;71.11
55347;BME280;41218;55.700;38.270;2022-11-20T07:41:57;100185.28;;;-2.39;71.03
55347;BME280;41218;55.700;38.270;2022-11-20T07:46:58;100182.31;;;-2.43;71.10
55347;BME280;41218;55.700;38.270;2022-11-20T07:51:58;100192.84;;;-2.36;71.00
55347;BME280;41218;55.700;38.270;2022-11-20T07:56:59;100195.56;;;-2.31;71.39
55347;BME280;41218;55.700;38.270;2022-11-20T08:01:59;100200.16;;;-2.26;71.07
55347;BME280;41218;55.700;38.270;2022-11-20T08:07:00;100191.72;;;-2.19;71.08
55347;BME280;41218;55.700;38.270;2022-11-20T08:12:00;100194.19;;;-2.18;70.68
55347;BME280;41218;55.700;38.270;2022-11-20T08:17:19;100197.44;;;-2.11;70.78
55347;BME280;41218;55.700;38.270;2022-11-20T08:22:20;100204.72;;;-2.11;70.77
55347;BME280;41218;55.700;38.270;2022-11-20T08:27:21;100201.22;;;-2.07;70.73
55347;BME280;41218;55.700;38.270;2022-11-20T08:32:21;100205.00;;;-2.08;70.46
55347;BME280;41218;55.700;38.270;2022-11-20T08:37:22;100210.41;;;-2.03;70.38
55347;BME280;41218;55.700;38.270;2022-11-20T08:42:22;100207.41;;;-2.01;70.50
55347;BME280;41218;55.700;38.270;2022-11-20T08:47:23;100211.47;;;-2.04;70.27
55347;BME280;41218;55.700;38.270;2022-11-20T08:52:23;100208.78;;;-2.04;70.51
55347;BME280;41218;55.700;38.270;2022-11-20T08:57:24;100225.03;;;-2.04;70.07
55347;BME280;41218;55.700;38.270;2022-11-20T09:02:24;100233.41;;;-2.00;70.15
55347;BME280;41218;55.700;38.270;2022-11-20T09:07:25;100255.06;;;-1.95;70.11
55347;BME280;41218;55.700;38.270;2022-11-20T09:12:26;100273.50;;;-1.92;69.78
55347;BME280;41218;55.700;38.270;2022-11-20T09:17:26;100266.97;;;-1.86;69.83
55347;BME280;41218;55.700;38.270;2022-11-20T09:22:27;100269.44;;;-1.84;69.87
55347;BME280;41218;55.700;38.270;2022-11-20T09:27:27;100270.22;;;-1.84;69.85
55347;BME280;41218;55.700;38.270;2022-11-20T09:32:28;100280.78;;;-1.77;69.90
55347;BME280;41218;55.700;38.270;2022-11-20T09:37:28;100286.47;;;-1.78;69.90
55347;BME280;41218;55.700;38.270;2022-11-20T09:42:49;100300.31;;;-1.85;69.70
55347;BME280;41218;55.700;38.270;2022-11-20T10:03:58;100310.34;;;-1.86;69.57
55347;BME280;41218;55.700;38.270;2022-11-20T10:29:45;100324.69;;;-1.95;70.18
55347;BME280;41218;55.700;38.270;2022-11-20T10:40:04;100329.28;;;-1.75;69.21
55347;BME280;41218;55.700;38.270;2022-11-20T10:45:25;100333.34;;;-1.73;69.22
55347;BME280;41218;55.700;38.270;2022-11-20T10:50:31;100346.63;;;-1.71;68.99
55347;BME280;41218;55.700;38.270;2022-11-20T11:00:44;100347.44;;;-1.76;69.24
55347;BME280;41218;55.700;38.270;2022-11-20T11:05:51;100359.38;;;-1.77;69.16
55347;BME280;41218;55.700;38.270;2022-11-20T11:10:57;100353.94;;;-1.77;68.98
55347;BME280;41218;55.700;38.270;2022-11-20T11:15:59;100363.44;;;-1.79;69.29
55347;BME280;41218;55.700;38.270;2022-11-20T11:21:01;100359.38;;;-1.77;69.54
55347;BME280;41218;55.700;38.270;2022-11-20T11:26:05;100372.13;;;-1.72;69.62
55347;BME280;41218;55.700;38.270;2022-11-20T11:31:06;100361.81;;;-1.75;69.07
55347;BME280;41218;55.700;38.270;2022-11-20T11:36:19;100366.69;;;-1.77;69.46
55347;BME280;41218;55.700;38.270;2022-11-20T11:41:24;100353.44;;;-1.84;69.26
55347;BME280;41218;55.700;38.270;2022-11-20T11:46:31;100349.34;;;-1.87;69.39
55347;BME280;41218;55.700;38.270;2022-11-20T11:51:45;100369.16;;;-1.86;69.23
55347;BME280;41218;55.700;38.270;2022-11-20T11:56:48;100369.38;;;-1.83;69.18
55347;BME280;41218;55.700;38.270;2022-11-20T12:01:56;100371.28;;;-1.83;69.91
55347;BME280;41218;55.700;38.270;2022-11-20T12:07:10;100381.84;;;-1.87;69.33
55347;BME280;41218;55.700;38.270;2022-11-20T12:12:39;100381.84;;;-1.87;69.47
55347;BME280;41218;55.700;38.270;2022-11-20T12:17:41;100376.44;;;-1.87;69.63
55347;BME280;41218;55.700;38.270;2022-11-20T12:38:45;100389.75;;;-1.90;69.76
55347;BME280;41218;55.700;38.270;2022-11-20T12:49:33;100372.38;;;-1.99;69.73
55347;BME280;41218;55.700;38.270;2022-11-20T12:55:03;100372.94;;;-1.97;70.05
55347;BME280;41218;55.700;38.270;2022-11-20T13:05:19;100394.31;;;-2.01;70.11
55347;BME280;41218;55.700;38.270;2022-11-20T13:10:49;100397.88;;;-2.00;69.91
55347;BME280;41218;55.700;38.270;2022-11-20T13:16:08;100409.25;;;-1.98;69.82
55347;BME280;41218;55.700;38.270;2022-11-20T13:21:34;100404.38;;;-1.96;69.93
55347;BME280;41218;55.700;38.270;2022-11-20T13:26:35;100395.94;;;-1.95;69.74
55347;BME280;41218;55.700;38.270;2022-11-20T13:31:40;100405.97;;;-1.95;69.57
55347;BME280;41218;55.700;38.270;2022-11-20T13:36:51;100398.94;;;-2.02;69.65
55347;BME280;41218;55.700;38.270;2022-11-20T13:42:00;100411.94;;;-1.98;70.03
55347;BME280;41218;55.700;38.270;2022-11-20T13:47:01;100414.94;;;-2.00;69.63
55347;BME280;41218;55.700;38.270;2022-11-20T14:08:06;100438.75;;;-2.02;69.86
55347;BME280;41218;55.700;38.270;2022-11-20T14:13:18;100436.56;;;-2.05;69.75
55347;BME280;41218;55.700;38.270;2022-11-20T14:18:21;100437.13;;;-2.08;69.84
55347;BME280;41218;55.700;38.270;2022-11-20T14:23:26;100452.59;;;-2.09;69.99
55347;BME280;41218;55.700;38.270;2022-11-20T14:28:29;100453.38;;;-2.08;69.95
55347;BME280;41218;55.700;38.270;2022-11-20T14:33:37;100446.88;;;-2.12;69.83
55347;BME280;41218;55.700;38.270;2022-11-20T14:38:38;100458.00;;;-2.09;69.89
55347;BME280;41218;55.700;38.270;2022-11-20T14:43:45;100450.38;;;-2.12;69.92
55347;BME280;41218;55.700;38.270;2022-11-20T14:48:49;100472.31;;;-2.13;70.12
55347;BME280;41218;55.700;38.270;2022-11-20T14:53:50;100484.78;;;-2.12;70.14
55347;BME280;41218;55.700;38.270;2022-11-20T14:58:57;100485.06;;;-2.14;70.20
55347;BME280;41218;55.700;38.270;2022-11-20T15:04:10;100487.25;;;-2.11;69.81
55347;BME280;41218;55.700;38.270;2022-11-20T15:09:15;100473.41;;;-2.14;70.38
55347;BME280;41218;55.700;38.270;2022-11-20T15:14:15;100473.41;;;-2.14;70.17
55347;BME280;41218;55.700;38.270;2022-11-20T15:19:25;100466.66;;;-2.17;69.87
55347;BME280;41218;55.700;38.270;2022-11-20T15:24:27;100469.63;;;-2.13;70.12
55347;BME280;41218;55.700;38.270;2022-11-20T15:29:27;100463.66;;;-2.20;70.05
55347;BME280;41218;55.700;38.270;2022-11-20T15:34:28;100461.75;;;-2.20;69.92
55347;BME280;41218;55.700;38.270;2022-11-20T15:39:28;100471.22;;;-2.17;69.96
55347;BME280;41218;55.700;38.270;2022-11-20T15:44:29;100469.63;;;-2.18;70.11
55347;BME280;41218;55.700;38.270;2022-11-20T15:49:29;100459.31;;;-2.22;70.05
55347;BME280;41218;55.700;38.270;2022-11-20T15:54:30;100462.28;;;-2.18;69.89
55347;BME280;41218;55.700;38.270;2022-11-20T15:59:30;100458.53;;;-2.17;70.22
55347;BME280;41218;55.700;38.270;2022-11-20T16:04:31;100448.22;;;-2.20;70.19
55347;BME280;41218;55.700;38.270;2022-11-20T16:09:31;100451.19;;;-2.22;69.97
55347;BME280;41218;55.700;38.270;2022-11-20T16:14:32;100460.09;;;-2.21;70.12
55347;BME280;41218;55.700;38.270;2022-11-20T16:19:51;100481.81;;;-2.16;69.80
55347;BME280;41218;55.700;38.270;2022-11-20T16:24:52;100456.34;;;-2.20;70.05
55347;BME280;41218;55.700;38.270;2022-11-20T16:29:52;100460.41;;;-2.17;70.21
55347;BME280;41218;55.700;38.270;2022-11-20T16:34:53;100456.88;;;-2.18;70.06
55347;BME280;41218;55.700;38.270;2022-11-20T16:39:53;100457.69;;;-2.23;70.09
55347;BME280;41218;55.700;38.270;2022-11-20T16:44:56;100467.16;;;-2.20;69.89
55347;BME280;41218;55.700;38.270;2022-11-20T16:49:57;100449.56;;;-2.23;69.75
55347;BME280;41218;55.700;38.270;2022-11-20T16:54:58;100454.44;;;-2.25;69.77
55347;BME280;41218;55.700;38.270;2022-11-20T16:59:59;100456.03;;;-2.24;69.61
55347;BME280;41218;55.700;38.270;2022-11-20T17:05:00;100469.34;;;-2.17;69.84
55347;BME280;41218;55.700;38.270;2022-11-20T17:10:00;100451.44;;;-2.23;69.90
55347;BME280;41218;55.700;38.270;2022-11-20T17:15:01;100473.09;;;-2.23;69.54
55347;BME280;41218;55.700;38.270;2022-11-20T17:20:02;100460.13;;;-2.26;69.79
55347;BME280;41218;55.700;38.270;2022-11-20T17:25:03;100454.69;;;-2.26;70.01
55347;BME280;41218;55.700;38.270;2022-11-20T17:30:04;100455.50;;;-2.26;69.94
55347;BME280;41218;55.700;38.270;2022-11-20T17:35:05;100447.91;;;-2.34;69.83
55347;BME280;41218;55.700;38.270;2022-11-20T17:40:06;100469.03;;;-2.26;69.78
55347;BME280;41218;55.700;38.270;2022-11-20T17:45:07;100472.56;;;-2.25;69.86
55347;BME280;41218;55.700;38.270;2022-11-20T17:50:08;100460.38;;;-2.28;69.53
55347;BME280;41218;55.700;38.270;2022-11-20T17:55:09;100470.66;;;-2.30;69.67
55347;BME280;41218;55.700;38.270;2022-11-20T18:00:10;100457.94;;;-2.34;69.54
55347;BME280;41218;55.700;38.270;2022-11-20T18:05:12;100468.50;;;-2.33;70.11
55347;BME280;41218;55.700;38.270;2022-11-20T18:10:13;100478.50;;;-2.33;69.69
55347;BME280;41218;55.700;38.270;2022-11-20T18:15:14;100480.09;;;-2.37;69.59
55347;BME280;41218;55.700;38.270;2022-11-20T18:20:15;100466.31;;;-2.36;69.87
55347;BME280;41218;55.700;38.270;2022-11-20T18:25:16;100480.38;;;-2.39;69.57
55347;BME280;41218;55.700;38.270;2022-11-20T18:30:17;100468.47;;;-2.43;69.89
55347;BME280;41218;55.700;38.270;2022-11-20T18:35:18;100465.47;;;-2.42;70.15
55347;BME280;41218;55.700;38.270;2022-11-20T18:40:19;100462.72;;;-2.52;70.18
55347;BME280;41218;55.700;38.270;2022-11-20T18:45:19;100484.97;;;-2.45;69.98
55347;BME280;41218;55.700;38.270;2022-11-20T18:50:20;100477.66;;;-2.49;70.09
55347;BME280;41218;55.700;38.270;2022-11-20T18:55:23;100483.63;;;-2.47;70.35
55347;BME280;41218;55.700;38.270;2022-11-20T19:00:25;100490.94;;;-2.43;70.67
55347;BME280;41218;55.700;38.270;2022-11-20T19:05:25;100487.69;;;-2.39;70.29
55347;BME280;41218;55.700;38.270;2022-11-20T19:10:26;100490.13;;;-2.38;69.88
55347;BME280;41218;55.700;38.270;2022-11-20T19:15:27;100470.63;;;-2.45;70.08
55347;BME280;41218;55.700;38.270;2022-11-20T19:20:27;100476.34;;;-2.36;70.33
55347;BME280;41218;55.700;38.270;2022-11-20T19:25:29;100474.69;;;-2.37;70.12
55347;BME280;41218;55.700;38.270;2022-11-20T19:30:32;100457.34;;;-2.42;70.09
55347;BME280;41218;55.700;38.270;2022-11-20T19:35:33;100448.69;;;-2.49;70.21
55347;BME280;41218;55.700;38.270;2022-11-20T19:40:35;100436.75;;;-2.53;69.88
55347;BME280;41218;55.700;38.270;2022-11-20T19:45:36;100436.19;;;-2.60;69.79
55347;BME280;41218;55.700;38.270;2022-11-20T19:50:36;100437.00;;;-2.59;69.79
55347;BME280;41218;55.700;38.270;2022-11-20T19:55:37;100436.44;;;-2.67;70.70
55347;BME280;41218;55.700;38.270;2022-11-20T20:00:37;100452.41;;;-2.60;70.01
55347;BME280;41218;55.700;38.270;2022-11-20T20:05:38;100464.06;;;-2.59;70.48
55347;BME280;41218;55.700;38.270;2022-11-20T20:10:38;100458.38;;;-2.58;70.42
55347;BME280;41218;55.700;38.270;2022-11-20T20:15:39;100454.88;;;-2.58;70.33
55347;BME280;41218;55.700;38.270;2022-11-20T20:20:40;100447.00;;;-2.60;70.12
55347;BME280;41218;55.700;38.270;2022-11-20T20:25:41;100445.69;;;-2.57;70.18
55347;BME280;41218;55.700;38.270;2022-11-20T20:30:41;100468.41;;;-2.58;70.54
55347;BME280;41218;55.700;38.270;2022-11-20T20:35:42;100465.66;;;-2.64;70.11
55347;BME280;41218;55.700;38.270;2022-11-20T20:40:47;100474.06;;;-2.60;70.51
55347;BME280;41218;55.700;38.270;2022-11-20T20:45:49;100482.75;;;-2.58;70.26
55347;BME280;41218;55.700;38.270;2022-11-20T20:55:55;100486.78;;;-2.60;69.99
55347;BME280;41218;55.700;38.270;2022-11-20T21:01:10;100485.44;;;-2.58;70.07
55347;BME280;41218;55.700;38.270;2022-11-20T21:06:11;100482.75;;;-2.58;70.09
55347;BME280;41218;55.700;38.270;2022-11-20T21:11:13;100477.88;;;-2.56;69.99
55347;BME280;41218;55.700;38.270;2022-11-20T21:16:15;100462.69;;;-2.62;69.95
55347;BME280;41218;55.700;38.270;2022-11-20T21:21:17;100482.47;;;-2.62;69.86
55347;BME280;41218;55.700;38.270;2022-11-20T21:26:36;100487.03;;;-2.67;69.96
55347;BME280;41218;55.700;38.270;2022-11-20T21:31:37;100478.13;;;-2.63;69.95
55347;BME280;41218;55.700;38.270;2022-11-20T21:36:37;100487.59;;;-2.65;70.08
55347;BME280;41218;55.700;38.270;2022-11-20T21:41:39;100488.91;;;-2.68;69.84
55347;BME280;41218;55.700;38.270;2022-11-20T21:46:42;100497.31;;;-2.69;69.60
55347;BME280;41218;55.700;38.270;2022-11-20T21:51:43;100490.00;;;-2.69;69.48
55347;BME280;41218;55.700;38.270;2022-11-20T21:56:43;100481.06;;;-2.69;69.68
55347;BME280;41218;55.700;38.270;2022-11-20T22:01:44;100477.53;;;-2.70;69.62
55347;BME280;41218;55.700;38.270;2022-11-20T22:06:44;100472.41;;;-2.71;69.87
55347;BME280;41218;55.700;38.270;2022-11-20T22:11:45;100464.50;;;-2.78;69.95
55347;BME280;41218;55.700;38.270;2022-11-20T22:16:46;100454.22;;;-2.81;69.54
55347;BME280;41218;55.700;38.270;2022-11-20T22:21:47;100458.56;;;-2.80;70.02
55347;BME280;41218;55.700;38.270;2022-11-20T22:26:49;100454.50;;;-2.83;69.75
55347;BME280;41218;55.700;38.270;2022-11-20T22:31:51;100448.53;;;-2.85;69.88
55347;BME280;41218;55.700;38.270;2022-11-20T22:36:52;100476.16;;;-2.77;70.26
55347;BME280;41218;55.700;38.270;2022-11-20T22:41:52;100481.53;;;-2.83;70.18
55347;BME280;41218;55.700;38.270;2022-11-20T22:46:53;100493.16;;;-2.82;70.37
55347;BME280;41218;55.700;38.270;2022-11-20T22:51:53;100466.13;;;-2.82;69.93
55347;BME280;41218;55.700;38.270;2022-11-20T22:56:53;100458.00;;;-2.82;69.79
55347;BME280;41218;55.700;38.270;2022-11-20T23:01:54;100454.75;;;-2.84;70.02
55347;BME280;41218;55.700;38.270;2022-11-20T23:06:54;100455.59;;;-2.84;69.98
55347;BME280;41218;55.700;38.270;2022-11-20T23:11:55;100463.41;;;-2.82;69.94
55347;BME280;41218;55.700;38.270;2022-11-20T23:16:55;100456.94;;;-2.81;69.84
55347;BME280;41218;55.700;38.270;2022-11-20T23:21:56;100435.84;;;-2.79;69.65
55347;BME280;41218;55.700;38.270;2022-11-20T23:26:56;100448.00;;;-2.82;69.42
55347;BME280;41218;55.700;38.270;2022-11-20T23:31:57;100443.91;;;-2.89;69.49
55347;BME280;41218;55.700;38.270;2022-11-20T23:36:57;100430.91;;;-2.92;69.80
55347;BME280;41218;55.700;38.270;2022-11-20T23:42:00;100441.44;;;-2.96;69.85
55347;BME280;41218;55.700;38.270;2022-11-20T23:47:00;100433.03;;;-2.99;69.85
55347;BME280;41218;55.700;38.270;2022-11-20T23:52:01;100420.81;;;-3.07;69.94
55347;BME280;41218;55.700;38.270;2022-11-20T23:57:01;100430.84;;;-3.08;70.25
